createdAt,value
2023-02-15T00:00:12.225Z,99.90
2023-02-15T00:02:40.984Z,99.90
2023-02-15T00:05:09.545Z,99.90
2023-02-15T00:07:37.532Z,99.90
2023-02-15T00:10:06.342Z,99.90
2023-02-15T00:12:35.548Z,99.90
2023-02-15T00:15:03.435Z,99.90
2023-02-15T00:17:31.457Z,99.90
2023-02-15T00:19:59.313Z,99.90
2023-02-15T00:22:27.848Z,99.90
2023-02-15T00:24:55.717Z,99.90
2023-02-15T00:27:23.714Z,99.90
2023-02-15T00:29:53.048Z,99.90
2023-02-15T00:32:20.967Z,99.90
2023-02-15T00:34:48.902Z,99.90
2023-02-15T00:37:17.794Z,99.90
2023-02-15T00:39:45.645Z,99.90
2023-02-15T00:42:13.594Z,99.90
2023-02-15T00:44:41.545Z,99.90
2023-02-15T00:47:10.908Z,99.90
2023-02-15T00:49:38.828Z,99.90
2023-02-15T00:52:07.666Z,99.90
2023-02-15T00:54:36.595Z,99.90
2023-02-15T00:57:04.510Z,99.90
2023-02-15T00:59:32.579Z,99.90
2023-02-15T01:02:00.453Z,99.90
2023-02-15T01:04:29.662Z,99.90
2023-02-15T01:06:57.743Z,99.90
2023-02-15T01:09:25.708Z,99.90
2023-02-15T01:11:53.566Z,99.90
2023-02-15T01:14:21.418Z,99.90
2023-02-15T01:16:49.278Z,99.90
2023-02-15T01:19:17.170Z,99.90
2023-02-15T01:21:46.584Z,99.90
2023-02-15T01:24:15.484Z,99.90
2023-02-15T01:26:46.549Z,99.90
2023-02-15T01:29:14.520Z,99.90
2023-02-15T01:31:42.527Z,99.90
2023-02-15T01:34:10.569Z,99.90
2023-02-15T01:36:38.472Z,99.90
2023-02-15T01:39:08.645Z,99.90
2023-02-15T01:41:36.520Z,99.90
2023-02-15T01:44:05.577Z,99.90
2023-02-15T01:46:39.613Z,99.90
2023-02-15T01:49:12.184Z,99.90
2023-02-15T01:51:44.014Z,99.90
2023-02-15T01:54:18.862Z,99.90
2023-02-15T01:56:48.595Z,99.90
2023-02-15T01:59:21.234Z,99.90
2023-02-15T02:01:49.403Z,99.90
2023-02-15T02:04:25.029Z,99.90
2023-02-15T02:06:55.143Z,99.90
2023-02-15T02:09:24.381Z,99.90
2023-02-15T02:11:52.698Z,99.90
2023-02-15T02:14:20.791Z,99.90
2023-02-15T02:16:59.494Z,99.90
2023-02-15T02:19:56.263Z,99.90
2023-02-15T02:23:13.934Z,99.90
2023-02-15T02:26:15.896Z,99.90
2023-02-15T02:29:10.414Z,99.90
2023-02-15T02:31:51.889Z,99.90
2023-02-15T02:34:27.688Z,99.90
2023-02-15T02:37:01.840Z,99.90
2023-02-15T02:39:51.170Z,99.90
2023-02-15T02:42:27.632Z,99.90
2023-02-15T02:45:02.373Z,99.90
2023-02-15T02:47:36.319Z,99.90
2023-02-15T02:50:08.838Z,99.90
2023-02-15T02:52:43.527Z,99.90
2023-02-15T02:55:17.606Z,99.90
2023-02-15T02:57:54.113Z,99.90
2023-02-15T03:00:23.717Z,99.90
2023-02-15T03:02:56.761Z,99.90
2023-02-15T03:05:31.458Z,99.90
2023-02-15T03:08:02.174Z,99.90
2023-02-15T03:10:31.559Z,99.90
2023-02-15T03:12:59.497Z,99.90
2023-02-15T03:15:52.744Z,99.90
2023-02-15T03:18:24.784Z,99.90
2023-02-15T03:20:55.389Z,99.90
2023-02-15T03:23:26.108Z,99.90
2023-02-15T03:25:57.362Z,99.90
2023-02-15T03:28:30.737Z,99.90
2023-02-15T03:31:04.832Z,99.90
2023-02-15T03:33:33.833Z,99.90
2023-02-15T03:36:10.619Z,99.90
2023-02-15T03:38:45.360Z,99.90
2023-02-15T03:41:14.798Z,99.90
2023-02-15T03:43:50.774Z,99.90
2023-02-15T03:46:26.495Z,99.90
2023-02-15T03:48:57.411Z,99.90
2023-02-15T03:51:38.962Z,99.90
2023-02-15T03:54:10.575Z,99.90
2023-02-15T03:56:41.652Z,99.90
2023-02-15T03:59:27.035Z,99.90
2023-02-15T04:02:06.940Z,99.90
2023-02-15T04:04:37.554Z,99.90
2023-02-15T04:07:08.941Z,99.90
2023-02-15T04:09:54.566Z,99.90
2023-02-15T04:12:22.467Z,99.90
2023-02-15T04:15:07.730Z,99.90
2023-02-15T04:17:35.641Z,99.90
2023-02-15T04:20:21.230Z,99.90
2023-02-15T04:23:08.144Z,99.90
2023-02-15T04:25:35.947Z,99.90
2023-02-15T04:28:03.791Z,99.90
2023-02-15T04:30:31.785Z,99.90
2023-02-15T04:32:59.707Z,99.90
2023-02-15T04:35:27.718Z,99.90
2023-02-15T04:37:57.749Z,99.90
2023-02-15T04:40:26.435Z,99.90
2023-02-15T04:42:54.418Z,99.90
2023-02-15T04:45:22.328Z,99.90
2023-02-15T04:47:50.399Z,99.90
2023-02-15T04:50:18.622Z,99.90
2023-02-15T04:52:46.691Z,99.90
2023-02-15T04:55:16.054Z,99.90
2023-02-15T04:57:44.099Z,99.90
2023-02-15T05:00:13.013Z,99.90
2023-02-15T05:02:42.032Z,99.90
2023-02-15T05:05:13.909Z,99.90
2023-02-15T05:07:41.793Z,99.90
2023-02-15T05:10:10.657Z,99.90
2023-02-15T05:12:39.876Z,99.90
2023-02-15T05:15:08.251Z,99.90
2023-02-15T05:17:36.110Z,99.90
2023-02-15T05:20:04.450Z,99.90
2023-02-15T05:22:32.294Z,99.90
2023-02-15T05:25:17.738Z,99.90
2023-02-15T05:28:05.384Z,99.90
2023-02-15T05:30:33.670Z,99.90
2023-02-15T05:33:01.620Z,99.90
2023-02-15T05:35:29.589Z,99.90
2023-02-15T05:37:57.467Z,99.90
2023-02-15T05:40:25.510Z,99.90
2023-02-15T05:42:54.796Z,99.90
2023-02-15T05:45:22.649Z,99.90
2023-02-15T05:47:51.555Z,99.90
2023-02-15T05:50:19.683Z,99.90
2023-02-15T05:52:47.699Z,99.90
2023-02-15T05:55:15.801Z,99.90
2023-02-15T05:57:43.627Z,99.90
2023-02-15T06:00:15.858Z,99.90
2023-02-15T06:02:43.811Z,99.90
2023-02-15T06:05:11.706Z,99.90
2023-02-15T06:07:39.560Z,99.90
2023-02-15T06:10:08.772Z,99.90
2023-02-15T06:12:36.690Z,99.90
2023-02-15T06:15:05.381Z,99.90
2023-02-15T06:17:34.617Z,99.90
2023-02-15T06:20:02.556Z,99.90
2023-02-15T06:22:30.530Z,99.90
2023-02-15T06:24:58.433Z,99.90
2023-02-15T06:27:27.843Z,99.90
2023-02-15T06:29:55.838Z,99.90
2023-02-15T06:32:23.729Z,99.90
2023-02-15T06:34:52.971Z,99.90
2023-02-15T06:37:20.859Z,99.90
2023-02-15T06:39:48.993Z,99.90
2023-02-15T06:42:19.086Z,99.90
2023-02-15T06:44:47.087Z,99.90
2023-02-15T06:47:14.961Z,99.90
2023-02-15T06:49:42.885Z,99.90
2023-02-15T06:52:14.256Z,99.90
2023-02-15T06:54:42.219Z,99.90
2023-02-15T06:57:10.910Z,99.90
2023-02-15T06:59:38.842Z,99.90
2023-02-15T07:02:06.739Z,99.90
2023-02-15T07:04:37.102Z,99.90
2023-02-15T07:07:05.589Z,99.90
2023-02-15T07:09:35.052Z,99.90
2023-02-15T07:12:21.004Z,99.90
2023-02-15T07:14:48.971Z,99.90
2023-02-15T07:17:35.070Z,99.90
2023-02-15T07:20:04.617Z,99.90
2023-02-15T07:22:32.498Z,99.90
2023-02-15T07:25:01.803Z,99.90
2023-02-15T07:27:30.124Z,99.90
2023-02-15T07:29:57.981Z,99.90
2023-02-15T07:32:26.127Z,99.90
2023-02-15T07:34:54.369Z,99.90
2023-02-15T07:37:22.394Z,99.90
2023-02-15T07:39:50.524Z,99.90
2023-02-15T07:42:20.883Z,99.90
2023-02-15T07:44:49.563Z,99.90
2023-02-15T07:47:17.741Z,99.90
2023-02-15T07:49:45.642Z,99.90
2023-02-15T07:52:13.568Z,99.90
2023-02-15T07:54:41.421Z,99.90
2023-02-15T07:57:09.347Z,99.90
2023-02-15T07:59:38.529Z,99.90
2023-02-15T08:02:11.331Z,99.90
2023-02-15T08:04:40.299Z,99.90
2023-02-15T08:07:08.788Z,99.90
2023-02-15T08:09:36.709Z,99.90
2023-02-15T08:12:05.207Z,99.90
2023-02-15T08:14:33.685Z,99.90
2023-02-15T08:17:03.690Z,99.90
2023-02-15T08:19:33.441Z,99.90
2023-02-15T08:22:03.576Z,99.90
2023-02-15T08:24:33.035Z,99.90
2023-02-15T08:27:05.994Z,99.90
2023-02-15T08:29:35.176Z,99.90
2023-02-15T08:32:06.367Z,99.90
2023-02-15T08:34:37.046Z,99.90
2023-02-15T08:37:06.894Z,99.90
2023-02-15T08:39:35.090Z,99.90
2023-02-15T08:42:03.317Z,99.90
2023-02-15T08:44:31.195Z,99.90
2023-02-15T08:47:03.698Z,99.90
2023-02-15T08:49:33.350Z,99.90
2023-02-15T08:52:01.589Z,99.90
2023-02-15T08:54:29.534Z,99.90
2023-02-15T08:56:57.670Z,99.90
2023-02-15T08:59:27.692Z,99.90
2023-02-15T09:01:56.495Z,99.90
2023-02-15T09:04:24.759Z,99.90
2023-02-15T09:06:54.201Z,99.90
2023-02-15T09:09:22.471Z,99.90
2023-02-15T09:11:58.603Z,99.90
2023-02-15T09:14:27.700Z,99.90
2023-02-15T09:16:56.332Z,99.90
2023-02-15T09:19:25.081Z,99.90
2023-02-15T09:21:54.412Z,99.90
2023-02-15T09:24:22.328Z,99.90
2023-02-15T09:26:53.309Z,99.90
2023-02-15T09:29:21.898Z,99.90
2023-02-15T09:31:52.129Z,99.90
2023-02-15T09:34:22.383Z,99.90
2023-02-15T09:36:51.927Z,99.90
2023-02-15T09:39:24.524Z,99.90
2023-02-15T09:42:21.890Z,99.90
2023-02-15T09:45:09.602Z,99.90
2023-02-15T09:48:05.088Z,99.90
2023-02-15T09:50:44.440Z,99.90
2023-02-15T09:53:29.820Z,97.90
2023-02-15T09:56:08.626Z,95.90
2023-02-15T09:58:46.221Z,93.30
2023-02-15T10:01:22.761Z,90.70
2023-02-15T10:04:03.186Z,87.00
2023-02-15T10:06:45.950Z,82.50
2023-02-15T10:09:25.298Z,77.60
2023-02-15T10:12:14.991Z,75.30
2023-02-15T10:15:12.456Z,71.60
2023-02-15T10:17:53.882Z,68.80
2023-02-15T10:20:30.756Z,68.40
2023-02-15T10:23:21.810Z,70.10
2023-02-15T10:25:56.019Z,69.50
2023-02-15T10:28:32.843Z,69.10
2023-02-15T10:31:06.211Z,67.80
2023-02-15T10:33:41.274Z,65.30
2023-02-15T10:36:21.909Z,65.70
2023-02-15T10:38:57.718Z,65.60
2023-02-15T10:41:38.094Z,64.20
2023-02-15T10:44:23.305Z,64.70
2023-02-15T10:47:20.207Z,63.90
2023-02-15T10:50:01.367Z,63.10
2023-02-15T10:52:44.254Z,62.00
2023-02-15T10:55:20.601Z,61.70
2023-02-15T10:57:57.582Z,60.50
2023-02-15T11:00:33.782Z,59.60
2023-02-15T11:03:24.625Z,59.20
2023-02-15T11:06:03.401Z,59.10
2023-02-15T11:08:36.268Z,58.80
2023-02-15T11:11:08.354Z,58.60
2023-02-15T11:13:41.275Z,57.40
2023-02-15T11:16:17.646Z,56.20
2023-02-15T11:18:52.061Z,55.30
2023-02-15T11:21:24.322Z,54.00
2023-02-15T11:23:53.881Z,53.00
2023-02-15T11:26:29.032Z,51.10
2023-02-15T11:29:01.492Z,49.60
2023-02-15T11:31:45.454Z,48.10
2023-02-15T11:34:20.749Z,46.80
2023-02-15T11:36:53.193Z,46.40
2023-02-15T11:39:24.034Z,45.40
2023-02-15T11:41:55.292Z,44.40
2023-02-15T11:44:27.325Z,44.40
2023-02-15T11:46:56.583Z,43.50
2023-02-15T11:49:28.317Z,42.30
2023-02-15T11:51:58.739Z,41.50
2023-02-15T11:54:31.605Z,41.40
2023-02-15T11:57:05.744Z,41.60
2023-02-15T11:59:37.667Z,41.80
2023-02-15T12:02:18.332Z,41.80
2023-02-15T12:04:51.573Z,41.80
2023-02-15T12:07:26.469Z,41.70
2023-02-15T12:10:01.655Z,41.90
2023-02-15T12:12:31.444Z,42.10
2023-02-15T12:15:00.556Z,42.10
2023-02-15T12:17:38.001Z,42.90
2023-02-15T12:20:09.397Z,43.40
2023-02-15T12:22:39.337Z,44.40
2023-02-15T12:25:24.141Z,45.60
2023-02-15T12:27:52.523Z,47.00
2023-02-15T12:30:25.045Z,48.40
2023-02-15T12:32:56.676Z,49.60
2023-02-15T12:35:31.790Z,50.70
2023-02-15T12:38:05.145Z,51.90
2023-02-15T12:40:35.158Z,52.70
2023-02-15T12:43:09.390Z,53.60
2023-02-15T12:45:38.672Z,54.30
2023-02-15T12:48:19.511Z,55.00
2023-02-15T12:50:54.731Z,55.80
2023-02-15T12:53:24.878Z,56.50
2023-02-15T12:55:55.941Z,57.10
2023-02-15T12:58:26.206Z,57.80
2023-02-15T13:01:06.928Z,58.40
2023-02-15T13:03:37.141Z,59.00
2023-02-15T13:06:08.409Z,59.60
2023-02-15T13:08:41.268Z,60.20
2023-02-15T13:11:11.295Z,61.10
2023-02-15T13:13:52.940Z,61.80
2023-02-15T13:16:30.268Z,62.50
2023-02-15T13:19:00.599Z,63.30
2023-02-15T13:21:33.823Z,64.00
2023-02-15T13:24:06.823Z,64.60
2023-02-15T13:26:36.326Z,65.10
2023-02-15T13:29:10.498Z,65.90
2023-02-15T13:31:40.703Z,66.50
2023-02-15T13:34:14.208Z,66.80
2023-02-15T13:36:51.590Z,67.10
2023-02-15T13:39:29.527Z,67.70
2023-02-15T13:42:05.380Z,67.90
2023-02-15T13:45:04.244Z,68.50
2023-02-15T13:47:40.016Z,68.90
2023-02-15T13:50:24.871Z,68.90
2023-02-15T13:53:00.073Z,69.10
2023-02-15T13:55:39.455Z,69.30
2023-02-15T13:58:55.060Z,69.50
2023-02-15T14:01:31.849Z,69.60
2023-02-15T14:04:36.412Z,69.90
2023-02-15T14:07:35.673Z,70.30
2023-02-15T14:10:20.441Z,71.00
2023-02-15T14:13:07.499Z,71.10
2023-02-15T14:15:42.806Z,71.50
2023-02-15T14:18:25.314Z,72.00
2023-02-15T14:21:01.309Z,72.20
2023-02-15T14:23:45.802Z,72.10
2023-02-15T14:26:23.091Z,72.20
2023-02-15T14:28:59.635Z,72.40
2023-02-15T14:31:33.228Z,71.90
2023-02-15T14:34:01.405Z,71.90
2023-02-15T14:36:31.429Z,72.30
2023-02-15T14:39:35.195Z,72.80
2023-02-15T14:42:10.122Z,73.20
2023-02-15T14:44:41.011Z,74.00
2023-02-15T14:47:15.649Z,75.40
2023-02-15T14:49:43.947Z,75.30
2023-02-15T14:52:12.534Z,76.10
2023-02-15T14:54:59.178Z,76.80
2023-02-15T14:57:35.749Z,77.40
2023-02-15T15:00:33.547Z,78.00
2023-02-15T15:03:02.163Z,78.70
2023-02-15T15:05:35.977Z,79.40
2023-02-15T15:08:06.581Z,79.90
2023-02-15T15:10:49.726Z,80.40
2023-02-15T15:14:02.802Z,80.80
2023-02-15T15:16:50.810Z,81.50
2023-02-15T15:20:13.976Z,82.10
2023-02-15T15:22:43.339Z,82.80
2023-02-15T15:25:13.957Z,83.40
2023-02-15T15:27:46.833Z,84.10
2023-02-15T15:31:02.706Z,84.90
2023-02-15T15:34:22.568Z,85.80
2023-02-15T15:37:30.062Z,86.80
2023-02-15T15:40:42.573Z,87.80
2023-02-15T15:43:54.976Z,88.70
2023-02-15T15:46:54.062Z,89.60
2023-02-15T15:49:25.314Z,90.30
2023-02-15T15:51:54.029Z,90.80
2023-02-15T15:54:24.126Z,91.20
2023-02-15T15:56:55.821Z,91.60
2023-02-15T15:59:27.538Z,92.10
2023-02-15T16:01:56.195Z,92.40
2023-02-15T16:04:30.781Z,92.80
2023-02-15T16:06:59.364Z,93.10
2023-02-15T16:09:29.083Z,93.50
2023-02-15T16:12:01.379Z,93.80
2023-02-15T16:14:33.573Z,94.20
2023-02-15T16:17:04.144Z,94.50
2023-02-15T16:19:36.669Z,94.80
2023-02-15T16:22:05.835Z,95.20
2023-02-15T16:24:54.607Z,95.60
2023-02-15T16:27:36.951Z,95.90
2023-02-15T16:30:26.971Z,96.20
2023-02-15T16:32:56.585Z,96.60
2023-02-15T16:35:25.606Z,96.90
2023-02-15T16:37:53.468Z,97.10
2023-02-15T16:40:35.554Z,97.40
2023-02-15T16:43:07.581Z,97.70
2023-02-15T16:45:39.790Z,98.00
2023-02-15T16:48:15.082Z,98.30
2023-02-15T16:50:50.724Z,98.70
2023-02-15T16:53:24.987Z,98.90
2023-02-15T16:55:55.415Z,99.30
2023-02-15T16:58:30.687Z,99.60
2023-02-15T17:01:03.014Z,99.90
2023-02-15T17:03:31.564Z,99.90
2023-02-15T17:06:01.008Z,99.90
2023-02-15T17:08:31.902Z,99.90
2023-02-15T17:11:13.961Z,99.90
2023-02-15T17:14:03.511Z,99.90
2023-02-15T17:16:35.408Z,99.90
2023-02-15T17:19:04.826Z,99.90
2023-02-15T17:21:34.712Z,99.90
2023-02-15T17:24:05.248Z,99.90
2023-02-15T17:26:36.118Z,99.90
2023-02-15T17:29:16.439Z,99.90
2023-02-15T17:31:50.624Z,99.90
2023-02-15T17:34:54.364Z,99.90
2023-02-15T17:37:28.535Z,99.90
2023-02-15T17:39:57.015Z,99.90
2023-02-15T17:42:25.002Z,99.90
2023-02-15T17:44:53.058Z,99.90
2023-02-15T17:47:27.911Z,99.90
2023-02-15T17:49:56.092Z,99.90
2023-02-15T17:52:32.012Z,99.90
2023-02-15T17:55:17.522Z,99.90
2023-02-15T17:57:45.742Z,99.90
2023-02-15T18:00:34.570Z,99.90
2023-02-15T18:03:21.567Z,99.90
2023-02-15T18:06:07.152Z,99.90
2023-02-15T18:08:52.395Z,99.90
2023-02-15T18:11:36.897Z,99.90
2023-02-15T18:14:05.797Z,99.90
2023-02-15T18:16:36.489Z,99.90
2023-02-15T18:19:06.965Z,99.90
2023-02-15T18:21:35.024Z,99.90
2023-02-15T18:24:03.141Z,99.90
2023-02-15T18:26:31.280Z,99.90
2023-02-15T18:28:59.257Z,99.90
2023-02-15T18:31:27.553Z,99.90
2023-02-15T18:33:59.049Z,99.90
2023-02-15T18:36:33.085Z,99.90
2023-02-15T18:39:08.441Z,99.90
2023-02-15T18:41:36.968Z,99.90
2023-02-15T18:44:05.072Z,99.90
2023-02-15T18:46:33.171Z,99.90
2023-02-15T18:49:01.113Z,99.90
2023-02-15T18:51:30.378Z,99.90
2023-02-15T18:54:03.768Z,99.90
2023-02-15T18:56:32.861Z,99.90
2023-02-15T18:59:01.109Z,99.90
2023-02-15T19:01:29.600Z,99.90
2023-02-15T19:03:57.523Z,99.90
2023-02-15T19:06:25.619Z,99.90
2023-02-15T19:08:55.097Z,99.90
2023-02-15T19:11:25.672Z,99.90
2023-02-15T19:13:55.049Z,99.90
2023-02-15T19:16:32.195Z,99.90
2023-02-15T19:19:00.778Z,99.90
2023-02-15T19:21:31.005Z,99.90
2023-02-15T19:24:05.931Z,99.90
2023-02-15T19:26:45.281Z,99.90
2023-02-15T19:29:16.013Z,99.90
2023-02-15T19:31:44.298Z,99.90
2023-02-15T19:34:15.846Z,99.90
2023-02-15T19:36:45.407Z,99.90
2023-02-15T19:39:25.172Z,99.90
2023-02-15T19:41:53.482Z,99.90
2023-02-15T19:44:21.889Z,99.90
2023-02-15T19:46:49.890Z,99.90
2023-02-15T19:49:17.806Z,99.90
2023-02-15T19:51:45.881Z,99.90
2023-02-15T19:54:30.653Z,99.90
2023-02-15T19:56:58.909Z,99.90
2023-02-15T19:59:28.817Z,99.90
2023-02-15T20:01:57.311Z,99.90
2023-02-15T20:04:25.791Z,99.90
2023-02-15T20:06:56.058Z,99.90
2023-02-15T20:09:27.618Z,99.90
2023-02-15T20:11:56.377Z,99.90
2023-02-15T20:14:25.065Z,99.90
2023-02-15T20:16:53.285Z,99.90
2023-02-15T20:19:21.281Z,99.90
2023-02-15T20:21:54.511Z,99.90
2023-02-15T20:24:26.819Z,99.90
2023-02-15T20:26:54.750Z,99.90
2023-02-15T20:29:22.727Z,99.90
2023-02-15T20:31:52.842Z,99.90
2023-02-15T20:34:22.890Z,99.90
2023-02-15T20:36:51.145Z,99.90
2023-02-15T20:39:20.673Z,99.90
2023-02-15T20:41:49.929Z,99.90
2023-02-15T20:44:24.017Z,99.90
2023-02-15T20:46:54.591Z,99.90
2023-02-15T20:49:23.879Z,99.90
2023-02-15T20:51:52.401Z,99.90
2023-02-15T20:54:22.812Z,99.90
2023-02-15T20:56:52.249Z,99.90
2023-02-15T20:59:26.054Z,99.90
2023-02-15T21:01:58.855Z,99.90
2023-02-15T21:04:30.955Z,99.90
2023-02-15T21:06:59.640Z,99.90
2023-02-15T21:09:27.567Z,99.90
2023-02-15T21:11:59.209Z,99.90
2023-02-15T21:14:29.353Z,99.90
2023-02-15T21:16:57.530Z,99.90
2023-02-15T21:19:25.863Z,99.90
2023-02-15T21:21:54.589Z,99.90
2023-02-15T21:24:25.330Z,99.90
2023-02-15T21:26:53.904Z,99.90
2023-02-15T21:29:25.435Z,99.90
2023-02-15T21:31:54.028Z,99.90
2023-02-15T21:34:22.440Z,99.90
2023-02-15T21:36:51.226Z,99.90
2023-02-15T21:39:22.881Z,99.90
2023-02-15T21:42:09.493Z,99.90
2023-02-15T21:44:56.418Z,99.90
2023-02-15T21:47:44.085Z,99.90
2023-02-15T21:50:31.225Z,99.90
2023-02-15T21:52:59.785Z,99.90
2023-02-15T21:55:28.126Z,99.90
2023-02-15T21:57:56.004Z,99.90
2023-02-15T22:00:26.497Z,99.90
2023-02-15T22:02:56.668Z,99.90
2023-02-15T22:05:27.835Z,99.90
2023-02-15T22:07:57.084Z,99.90
2023-02-15T22:10:26.314Z,99.90
2023-02-15T22:12:55.745Z,99.90
2023-02-15T22:15:27.272Z,99.90
2023-02-15T22:17:55.508Z,99.90
2023-02-15T22:20:25.021Z,99.90
2023-02-15T22:22:53.900Z,99.90
2023-02-15T22:25:25.278Z,99.90
2023-02-15T22:27:55.372Z,99.90
2023-02-15T22:30:28.639Z,99.90
2023-02-15T22:32:58.844Z,99.90
2023-02-15T22:35:28.820Z,99.90
2023-02-15T22:37:57.254Z,99.90
2023-02-15T22:40:29.852Z,99.90
2023-02-15T22:43:00.512Z,99.90
2023-02-15T22:45:30.018Z,99.90
2023-02-15T22:48:00.222Z,99.90
2023-02-15T22:50:30.036Z,99.90
2023-02-15T22:53:00.280Z,99.90
2023-02-15T22:55:31.123Z,99.90
2023-02-15T22:57:59.529Z,99.90
2023-02-15T23:00:30.778Z,99.90
2023-02-15T23:02:58.707Z,99.90
2023-02-15T23:05:28.846Z,99.90
2023-02-15T23:07:57.852Z,99.90
2023-02-15T23:10:27.532Z,99.90
2023-02-15T23:13:15.465Z,99.90
2023-02-15T23:15:48.730Z,99.90
2023-02-15T23:18:20.670Z,99.90
2023-02-15T23:20:51.408Z,99.90
2023-02-15T23:23:23.536Z,99.90
2023-02-15T23:25:51.528Z,99.90
2023-02-15T23:28:22.663Z,99.90
2023-02-15T23:30:52.249Z,99.90
2023-02-15T23:33:25.328Z,99.90
2023-02-15T23:35:53.160Z,99.90
2023-02-15T23:38:26.506Z,99.90
2023-02-15T23:41:15.818Z,99.90
2023-02-15T23:43:47.672Z,99.90
2023-02-15T23:46:28.112Z,99.90
2023-02-15T23:48:56.736Z,99.90
2023-02-15T23:51:30.467Z,99.90
2023-02-15T23:53:58.597Z,99.90
2023-02-15T23:56:26.781Z,99.90
2023-02-15T23:58:54.750Z,99.90
